sensor_id;sensor_type;location;lat;lon;timestamp;pressure;altitude;pressure_sealevel;temperature;humidity
73101;BME280;61288;53.446;-2.266;2023-11-19T00:02:19;100807.47;;;10.19;100.00
73101;BME280;61288;53.446;-2.266;2023-11-19T00:04:45;100807.47;;;10.19;100.00
73101;BME280;61288;53.446;-2.266;2023-11-19T00:07:10;100807.59;;;10.16;100.00
73101;BME280;61288;53.446;-2.266;2023-11-19T00:09:38;100813.78;;;10.11;100.00
73101;BME280;61288;53.446;-2.266;2023-11-19T00:12:05;100810.47;;;10.08;100.00
73101;BME280;61288;53.446;-2.266;2023-11-19T00:14:32;100806.22;;;10.05;100.00
73101;BME280;61288;53.446;-2.266;2023-11-19T00:16:58;100801.06;;;10.05;100.00
73101;BME280;61288;53.446;-2.266;2023-11-19T00:19:24;100801.94;;;10.04;100.00
73101;BME280;61288;53.446;-2.266;2023-11-19T00:21:49;100786.38;;;10.06;100.00
73101;BME280;61288;53.446;-2.266;2023-11-19T00:24:15;100778.66;;;10.04;100.00
73101;BME280;61288;53.446;-2.266;2023-11-19T00:26:42;100780.44;;;10.02;100.00
73101;BME280;61288;53.446;-2.266;2023-11-19T00:29:08;100781.47;;;9.98;100.00
73101;BME280;61288;53.446;-2.266;2023-11-19T00:31:33;100790.25;;;9.94;100.00
73101;BME280;61288;53.446;-2.266;2023-11-19T00:33:59;100791.94;;;9.95;100.00
73101;BME280;61288;53.446;-2.266;2023-11-19T00:36:25;100776.53;;;9.92;100.00
73101;BME280;61288;53.446;-2.266;2023-11-19T00:38:51;100780.00;;;9.91;100.00
73101;BME280;61288;53.446;-2.266;2023-11-19T00:41:18;100780.84;;;9.91;100.00
73101;BME280;61288;53.446;-2.266;2023-11-19T00:43:44;100779.22;;;9.89;100.00
73101;BME280;61288;53.446;-2.266;2023-11-19T00:46:09;100779.22;;;9.89;100.00
73101;BME280;61288;53.446;-2.266;2023-11-19T00:48:36;100780.91;;;9.90;100.00
73101;BME280;61288;53.446;-2.266;2023-11-19T00:51:02;100780.91;;;9.90;100.00
73101;BME280;61288;53.446;-2.266;2023-11-19T00:53:29;100780.69;;;9.96;100.00
73101;BME280;61288;53.446;-2.266;2023-11-19T00:55:54;100785.88;;;9.96;100.00
73101;BME280;61288;53.446;-2.266;2023-11-19T00:58:20;100778.09;;;9.96;100.00
73101;BME280;61288;53.446;-2.266;2023-11-19T01:00:45;100779.75;;;9.99;100.00
73101;BME280;61288;53.446;-2.266;2023-11-19T01:03:11;100778.72;;;10.03;100.00
73101;BME280;61288;53.446;-2.266;2023-11-19T01:05:37;100774.34;;;10.05;100.00
73101;BME280;61288;53.446;-2.266;2023-11-19T01:08:05;100776.72;;;10.09;100.00
73101;BME280;61288;53.446;-2.266;2023-11-19T01:10:31;100774.25;;;10.06;100.00
73101;BME280;61288;53.446;-2.266;2023-11-19T01:12:57;100783.03;;;10.02;100.00
73101;BME280;61288;53.446;-2.266;2023-11-19T01:15:22;100785.81;;;9.97;100.00
73101;BME280;61288;53.446;-2.266;2023-11-19T01:17:48;100789.34;;;9.95;100.00
73101;BME280;61288;53.446;-2.266;2023-11-19T01:20:14;100791.97;;;9.93;100.00
73101;BME280;61288;53.446;-2.266;2023-11-19T01:22:39;100793.75;;;9.93;100.00
73101;BME280;61288;53.446;-2.266;2023-11-19T01:25:06;100797.16;;;9.93;100.00
73101;BME280;61288;53.446;-2.266;2023-11-19T01:27:32;100796.28;;;9.94;100.00
73101;BME280;61288;53.446;-2.266;2023-11-19T01:30:00;100790.28;;;9.92;100.00
73101;BME280;61288;53.446;-2.266;2023-11-19T01:32:29;100793.75;;;9.93;100.00
73101;BME280;61288;53.446;-2.266;2023-11-19T01:34:55;100789.47;;;9.92;100.00
73101;BME280;61288;53.446;-2.266;2023-11-19T01:37:20;100791.16;;;9.93;100.00
73101;BME280;61288;53.446;-2.266;2023-11-19T01:39:46;100794.66;;;9.92;100.00
73101;BME280;61288;53.446;-2.266;2023-11-19T01:42:11;100796.44;;;9.90;100.00
73101;BME280;61288;53.446;-2.266;2023-11-19T01:44:41;100800.84;;;9.88;100.00
73101;BME280;61288;53.446;-2.266;2023-11-19T01:47:08;100798.38;;;9.85;100.00
73101;BME280;61288;53.446;-2.266;2023-11-19T01:49:34;100814.03;;;9.80;100.00
73101;BME280;61288;53.446;-2.266;2023-11-19T01:52:00;100821.94;;;9.75;100.00
73101;BME280;61288;53.446;-2.266;2023-11-19T01:54:26;100833.31;;;9.71;100.00
73101;BME280;61288;53.446;-2.266;2023-11-19T01:56:55;100840.25;;;9.71;100.00
73101;BME280;61288;53.446;-2.266;2023-11-19T01:59:23;100836.00;;;9.68;100.00
73101;BME280;61288;53.446;-2.266;2023-11-19T02:01:53;100854.13;;;9.68;100.00
73101;BME280;61288;53.446;-2.266;2023-11-19T02:04:20;100851.53;;;9.68;100.00
73101;BME280;61288;53.446;-2.266;2023-11-19T02:06:48;100850.75;;;9.66;100.00
73101;BME280;61288;53.446;-2.266;2023-11-19T02:09:15;100853.22;;;9.69;100.00
73101;BME280;61288;53.446;-2.266;2023-11-19T02:11:46;100859.25;;;9.70;100.00
73101;BME280;61288;53.446;-2.266;2023-11-19T02:14:17;100869.59;;;9.70;100.00
73101;BME280;61288;53.446;-2.266;2023-11-19T02:16:44;100861.63;;;9.76;100.00
73101;BME280;61288;53.446;-2.266;2023-11-19T02:19:10;100866.84;;;9.74;100.00
73101;BME280;61288;53.446;-2.266;2023-11-19T02:21:36;100873.72;;;9.75;100.00
73101;BME280;61288;53.446;-2.266;2023-11-19T02:24:06;100863.28;;;9.78;100.00
73101;BME280;61288;53.446;-2.266;2023-11-19T02:26:49;100868.47;;;9.78;100.00
73101;BME280;61288;53.446;-2.266;2023-11-19T02:29:17;100852.94;;;9.78;100.00
73101;BME280;61288;53.446;-2.266;2023-11-19T02:31:43;100863.28;;;9.78;100.00
73101;BME280;61288;53.446;-2.266;2023-11-19T02:34:10;100851.22;;;9.77;100.00
73101;BME280;61288;53.446;-2.266;2023-11-19T02:36:37;100844.44;;;9.73;100.00
73101;BME280;61288;53.446;-2.266;2023-11-19T02:39:03;100830.72;;;9.71;100.00
73101;BME280;61288;53.446;-2.266;2023-11-19T02:41:29;100830.72;;;9.71;100.00
73101;BME280;61288;53.446;-2.266;2023-11-19T02:43:55;100814.38;;;9.71;100.00
73101;BME280;61288;53.446;-2.266;2023-11-19T02:46:21;100821.28;;;9.70;100.00
73101;BME280;61288;53.446;-2.266;2023-11-19T02:48:46;100813.41;;;9.73;100.00
73101;BME280;61288;53.446;-2.266;2023-11-19T02:51:12;100817.69;;;9.74;100.00
73101;BME280;61288;53.446;-2.266;2023-11-19T02:53:38;100825.34;;;9.77;100.00
73101;BME280;61288;53.446;-2.266;2023-11-19T02:56:05;100823.56;;;9.79;100.00
73101;BME280;61288;53.446;-2.266;2023-11-19T02:58:44;100815.84;;;9.78;100.00
73101;BME280;61288;53.446;-2.266;2023-11-19T03:01:11;100822.69;;;9.79;100.00
73101;BME280;61288;53.446;-2.266;2023-11-19T03:03:57;100808.13;;;9.76;100.00
73101;BME280;61288;53.446;-2.266;2023-11-19T03:06:23;100817.56;;;9.77;100.00
73101;BME280;61288;53.446;-2.266;2023-11-19T03:08:49;100812.31;;;9.80;100.00
73101;BME280;61288;53.446;-2.266;2023-11-19T03:11:15;100814.78;;;9.83;100.00
73101;BME280;61288;53.446;-2.266;2023-11-19T03:13:40;100820.75;;;9.86;100.00
73101;BME280;61288;53.446;-2.266;2023-11-19T03:16:07;100802.56;;;9.87;100.00
73101;BME280;61288;53.446;-2.266;2023-11-19T03:18:32;100809.38;;;9.90;100.00
73101;BME280;61288;53.446;-2.266;2023-11-19T03:20:58;100801.63;;;9.90;100.00
73101;BME280;61288;53.446;-2.266;2023-11-19T03:23:24;100786.22;;;9.87;100.00
73101;BME280;61288;53.446;-2.266;2023-11-19T03:25:50;100790.59;;;9.85;100.00
73101;BME280;61288;53.446;-2.266;2023-11-19T03:28:15;100794.19;;;9.80;100.00
73101;BME280;61288;53.446;-2.266;2023-11-19T03:30:41;100785.66;;;9.78;100.00
73101;BME280;61288;53.446;-2.266;2023-11-19T03:33:07;100793.59;;;9.72;100.00
73101;BME280;61288;53.446;-2.266;2023-11-19T03:35:32;100790.28;;;9.68;100.00
73101;BME280;61288;53.446;-2.266;2023-11-19T03:37:58;100786.94;;;9.66;100.00
73101;BME280;61288;53.446;-2.266;2023-11-19T03:40:23;100783.56;;;9.64;100.00
73101;BME280;61288;53.446;-2.266;2023-11-19T03:42:50;100787.97;;;9.61;100.00
73101;BME280;61288;53.446;-2.266;2023-11-19T03:45:16;100790.59;;;9.59;100.00
73101;BME280;61288;53.446;-2.266;2023-11-19T03:47:41;100798.31;;;9.61;100.00
73101;BME280;61288;53.446;-2.266;2023-11-19T03:50:07;100803.53;;;9.59;100.00
73101;BME280;61288;53.446;-2.266;2023-11-19T03:52:34;100806.97;;;9.60;100.00
73101;BME280;61288;53.446;-2.266;2023-11-19T03:54:59;100802.59;;;9.62;100.00
73101;BME280;61288;53.446;-2.266;2023-11-19T03:57:26;100804.28;;;9.63;100.00
73101;BME280;61288;53.446;-2.266;2023-11-19T03:59:52;100811.16;;;9.64;100.00
73101;BME280;61288;53.446;-2.266;2023-11-19T04:02:17;100810.31;;;9.63;100.00
73101;BME280;61288;53.446;-2.266;2023-11-19T04:04:43;100812.91;;;9.63;100.00
73101;BME280;61288;53.446;-2.266;2023-11-19T04:07:08;100818.06;;;9.63;100.00
73101;BME280;61288;53.446;-2.266;2023-11-19T04:09:34;100809.41;;;9.64;100.00
73101;BME280;61288;53.446;-2.266;2023-11-19T04:12:01;100812.94;;;9.62;100.00
73101;BME280;61288;53.446;-2.266;2023-11-19T04:14:26;100806.94;;;9.61;100.00
73101;BME280;61288;53.446;-2.266;2023-11-19T04:16:52;100811.25;;;9.61;100.00
73101;BME280;61288;53.446;-2.266;2023-11-19T04:19:19;100811.25;;;9.61;100.00
73101;BME280;61288;53.446;-2.266;2023-11-19T04:21:45;100804.34;;;9.61;100.00
73101;BME280;61288;53.446;-2.266;2023-11-19T04:24:11;100793.94;;;9.63;100.00
73101;BME280;61288;53.446;-2.266;2023-11-19T04:26:45;100792.22;;;9.63;100.00
73101;BME280;61288;53.446;-2.266;2023-11-19T04:29:15;100793.81;;;9.66;100.00
73101;BME280;61288;53.446;-2.266;2023-11-19T04:31:45;100786.75;;;9.71;100.00
73101;BME280;61288;53.446;-2.266;2023-11-19T04:34:12;100775.44;;;9.74;100.00
73101;BME280;61288;53.446;-2.266;2023-11-19T04:36:38;100772.88;;;9.74;100.00
73101;BME280;61288;53.446;-2.266;2023-11-19T04:39:05;100766.81;;;9.73;100.00
73101;BME280;61288;53.446;-2.266;2023-11-19T04:41:46;100767.69;;;9.74;100.00
73101;BME280;61288;53.446;-2.266;2023-11-19T04:44:13;100763.41;;;9.73;100.00
73101;BME280;61288;53.446;-2.266;2023-11-19T04:46:38;100765.13;;;9.72;100.00
73101;BME280;61288;53.446;-2.266;2023-11-19T04:49:04;100761.75;;;9.70;100.00
73101;BME280;61288;53.446;-2.266;2023-11-19T04:51:30;100763.53;;;9.70;100.00
73101;BME280;61288;53.446;-2.266;2023-11-19T04:53:55;100769.53;;;9.70;100.00
73101;BME280;61288;53.446;-2.266;2023-11-19T04:56:21;100757.44;;;9.71;100.00
73101;BME280;61288;53.446;-2.266;2023-11-19T04:58:48;100760.03;;;9.71;100.00
73101;BME280;61288;53.446;-2.266;2023-11-19T05:01:14;100748.00;;;9.70;100.00
73101;BME280;61288;53.446;-2.266;2023-11-19T05:03:44;100747.09;;;9.71;100.00
73101;BME280;61288;53.446;-2.266;2023-11-19T05:06:10;100757.44;;;9.71;100.00
73101;BME280;61288;53.446;-2.266;2023-11-19T05:08:36;100746.19;;;9.72;100.00
73101;BME280;61288;53.446;-2.266;2023-11-19T05:11:01;100751.38;;;9.72;100.00
73101;BME280;61288;53.446;-2.266;2023-11-19T05:13:27;100751.31;;;9.73;100.00
73101;BME280;61288;53.446;-2.266;2023-11-19T05:15:52;100750.47;;;9.73;100.00
73101;BME280;61288;53.446;-2.266;2023-11-19T05:18:18;100741.75;;;9.75;100.00
73101;BME280;61288;53.446;-2.266;2023-11-19T05:20:45;100742.63;;;9.74;100.00
73101;BME280;61288;53.446;-2.266;2023-11-19T05:23:11;100737.47;;;9.74;100.00
73101;BME280;61288;53.446;-2.266;2023-11-19T05:25:36;100739.22;;;9.74;100.00
73101;BME280;61288;53.446;-2.266;2023-11-19T05:28:02;100733.19;;;9.73;100.00
73101;BME280;61288;53.446;-2.266;2023-11-19T05:30:27;100736.69;;;9.72;100.00
73101;BME280;61288;53.446;-2.266;2023-11-19T05:32:53;100732.41;;;9.71;100.00
73101;BME280;61288;53.446;-2.266;2023-11-19T05:35:18;100730.72;;;9.70;100.00
73101;BME280;61288;53.446;-2.266;2023-11-19T05:37:44;100736.78;;;9.69;100.00
73101;BME280;61288;53.446;-2.266;2023-11-19T05:40:09;100728.25;;;9.67;100.00
73101;BME280;61288;53.446;-2.266;2023-11-19T05:42:42;100731.69;;;9.67;100.00
73101;BME280;61288;53.446;-2.266;2023-11-19T05:45:10;100730.81;;;9.67;100.00
73101;BME280;61288;53.446;-2.266;2023-11-19T05:47:36;100729.03;;;9.69;100.00
73101;BME280;61288;53.446;-2.266;2023-11-19T05:50:02;100731.69;;;9.67;100.00
73101;BME280;61288;53.446;-2.266;2023-11-19T05:52:28;100722.25;;;9.66;100.00
73101;BME280;61288;53.446;-2.266;2023-11-19T05:54:59;100730.03;;;9.65;100.00
73101;BME280;61288;53.446;-2.266;2023-11-19T05:57:27;100726.66;;;9.63;100.00
73101;BME280;61288;53.446;-2.266;2023-11-19T05:59:54;100717.25;;;9.60;100.00
73101;BME280;61288;53.446;-2.266;2023-11-19T06:02:20;100720.81;;;9.58;100.00
73101;BME280;61288;53.446;-2.266;2023-11-19T06:04:47;100732.06;;;9.57;100.00
73101;BME280;61288;53.446;-2.266;2023-11-19T06:07:14;100735.59;;;9.54;100.00
73101;BME280;61288;53.446;-2.266;2023-11-19T06:09:40;100738.25;;;9.52;100.00
73101;BME280;61288;53.446;-2.266;2023-11-19T06:12:06;100743.47;;;9.51;100.00
73101;BME280;61288;53.446;-2.266;2023-11-19T06:14:32;100753.94;;;9.48;100.00
73101;BME280;61288;53.446;-2.266;2023-11-19T06:16:58;100757.47;;;9.45;100.00
73101;BME280;61288;53.446;-2.266;2023-11-19T06:19:23;100760.22;;;9.41;100.00
73101;BME280;61288;53.446;-2.266;2023-11-19T06:21:50;100753.41;;;9.38;100.00
73101;BME280;61288;53.446;-2.266;2023-11-19T06:24:16;100762.94;;;9.36;100.00
73101;BME280;61288;53.446;-2.266;2023-11-19T06:26:41;100770.78;;;9.34;100.00
73101;BME280;61288;53.446;-2.266;2023-11-19T06:29:07;100776.88;;;9.32;100.00
73101;BME280;61288;53.446;-2.266;2023-11-19T06:31:32;100792.47;;;9.30;100.00
73101;BME280;61288;53.446;-2.266;2023-11-19T06:33:58;100802.75;;;9.32;100.00
73101;BME280;61288;53.446;-2.266;2023-11-19T06:36:24;100801.91;;;9.31;100.00
73101;BME280;61288;53.446;-2.266;2023-11-19T06:38:49;100811.38;;;9.32;100.00
73101;BME280;61288;53.446;-2.266;2023-11-19T06:41:15;100810.50;;;9.32;100.00
73101;BME280;61288;53.446;-2.266;2023-11-19T06:43:40;100817.44;;;9.31;100.00
73101;BME280;61288;53.446;-2.266;2023-11-19T06:46:06;100821.75;;;9.31;100.00
73101;BME280;61288;53.446;-2.266;2023-11-19T06:48:39;100827.72;;;9.33;100.00
73101;BME280;61288;53.446;-2.266;2023-11-19T06:51:05;100839.81;;;9.32;100.00
73101;BME280;61288;53.446;-2.266;2023-11-19T06:53:30;100839.81;;;9.32;100.00
73101;BME280;61288;53.446;-2.266;2023-11-19T06:55:56;100840.63;;;9.33;100.00
73101;BME280;61288;53.446;-2.266;2023-11-19T06:58:22;100847.47;;;9.35;100.00
73101;BME280;61288;53.446;-2.266;2023-11-19T07:00:47;100851.78;;;9.35;100.00
73101;BME280;61288;53.446;-2.266;2023-11-19T07:03:14;100858.59;;;9.37;100.00
73101;BME280;61288;53.446;-2.266;2023-11-19T07:05:41;100849.94;;;9.38;100.00
73101;BME280;61288;53.446;-2.266;2023-11-19T07:08:06;100864.50;;;9.41;100.00
73101;BME280;61288;53.446;-2.266;2023-11-19T07:10:35;100855.84;;;9.42;100.00
73101;BME280;61288;53.446;-2.266;2023-11-19T07:13:00;100860.94;;;9.45;100.00
73101;BME280;61288;53.446;-2.266;2023-11-19T07:15:26;100865.16;;;9.48;100.00
73101;BME280;61288;53.446;-2.266;2023-11-19T07:17:51;100854.88;;;9.46;100.00
73101;BME280;61288;53.446;-2.266;2023-11-19T07:20:20;100856.59;;;9.46;100.00
73101;BME280;61288;53.446;-2.266;2023-11-19T07:22:46;100860.88;;;9.47;100.00
73101;BME280;61288;53.446;-2.266;2023-11-19T07:25:15;100869.50;;;9.47;100.00
73101;BME280;61288;53.446;-2.266;2023-11-19T07:27:41;100864.34;;;9.46;100.00
73101;BME280;61288;53.446;-2.266;2023-11-19T07:30:06;100866.03;;;9.47;100.00
73101;BME280;61288;53.446;-2.266;2023-11-19T07:32:35;100874.66;;;9.47;100.00
73101;BME280;61288;53.446;-2.266;2023-11-19T07:35:00;100862.63;;;9.46;100.00
73101;BME280;61288;53.446;-2.266;2023-11-19T07:37:26;100882.44;;;9.47;100.00
73101;BME280;61288;53.446;-2.266;2023-11-19T07:39:51;100869.50;;;9.47;100.00
73101;BME280;61288;53.446;-2.266;2023-11-19T07:42:17;100869.44;;;9.49;100.00
73101;BME280;61288;53.446;-2.266;2023-11-19T07:44:43;100872.88;;;9.49;100.00
73101;BME280;61288;53.446;-2.266;2023-11-19T07:47:09;100877.16;;;9.50;100.00
73101;BME280;61288;53.446;-2.266;2023-11-19T07:49:35;100885.75;;;9.51;100.00
73101;BME280;61288;53.446;-2.266;2023-11-19T07:52:01;100881.41;;;9.51;100.00
73101;BME280;61288;53.446;-2.266;2023-11-19T07:54:28;100891.78;;;9.51;100.00
73101;BME280;61288;53.446;-2.266;2023-11-19T07:56:54;100898.63;;;9.52;100.00
73101;BME280;61288;53.446;-2.266;2023-11-19T07:59:19;100904.69;;;9.51;100.00
73101;BME280;61288;53.446;-2.266;2023-11-19T08:01:45;100903.06;;;9.49;100.00
73101;BME280;61288;53.446;-2.266;2023-11-19T08:04:11;100905.69;;;9.47;100.00
73101;BME280;61288;53.446;-2.266;2023-11-19T08:06:38;100924.63;;;9.48;100.00
73101;BME280;61288;53.446;-2.266;2023-11-19T08:09:04;100925.53;;;9.47;100.00
73101;BME280;61288;53.446;-2.266;2023-11-19T08:11:30;100914.28;;;9.48;100.00
73101;BME280;61288;53.446;-2.266;2023-11-19T08:13:56;100930.59;;;9.50;100.00
73101;BME280;61288;53.446;-2.266;2023-11-19T08:16:21;100934.84;;;9.52;100.00
73101;BME280;61288;53.446;-2.266;2023-11-19T08:18:46;100940.03;;;9.52;100.00
73101;BME280;61288;53.446;-2.266;2023-11-19T08:21:12;100930.50;;;9.53;100.00
73101;BME280;61288;53.446;-2.266;2023-11-19T08:23:38;100935.66;;;9.54;100.00
73101;BME280;61288;53.446;-2.266;2023-11-19T08:26:05;100941.59;;;9.57;100.00
73101;BME280;61288;53.446;-2.266;2023-11-19T08:28:31;100945.03;;;9.57;100.00
73101;BME280;61288;53.446;-2.266;2023-11-19T08:30:56;100951.00;;;9.59;100.00
73101;BME280;61288;53.446;-2.266;2023-11-19T08:33:22;100945.00;;;9.59;100.00
73101;BME280;61288;53.446;-2.266;2023-11-19T08:35:48;100950.97;;;9.61;100.00
73101;BME280;61288;53.446;-2.266;2023-11-19T08:38:13;100957.00;;;9.61;100.00
73101;BME280;61288;53.446;-2.266;2023-11-19T08:40:39;100960.41;;;9.62;100.00
73101;BME280;61288;53.446;-2.266;2023-11-19T08:43:04;100960.41;;;9.62;100.00
73101;BME280;61288;53.446;-2.266;2023-11-19T08:45:31;100958.63;;;9.64;100.00
73101;BME280;61288;53.446;-2.266;2023-11-19T08:47:57;100967.19;;;9.66;100.00
73101;BME280;61288;53.446;-2.266;2023-11-19T08:50:22;100967.19;;;9.66;100.00
73101;BME280;61288;53.446;-2.266;2023-11-19T08:52:48;100979.22;;;9.67;100.00
73101;BME280;61288;53.446;-2.266;2023-11-19T08:55:13;100969.66;;;9.69;100.00
73101;BME280;61288;53.446;-2.266;2023-11-19T08:57:39;100974.84;;;9.69;100.00
73101;BME280;61288;53.446;-2.266;2023-11-19T09:00:05;100969.63;;;9.71;100.00
73101;BME280;61288;53.446;-2.266;2023-11-19T09:02:35;100974.72;;;9.72;100.00
73101;BME280;61288;53.446;-2.266;2023-11-19T09:05:02;100975.50;;;9.76;100.00
73101;BME280;61288;53.446;-2.266;2023-11-19T09:07:28;100970.31;;;9.76;100.00
73101;BME280;61288;53.446;-2.266;2023-11-19T09:09:53;100973.72;;;9.76;100.00
73101;BME280;61288;53.446;-2.266;2023-11-19T09:12:19;100975.50;;;9.76;100.00
73101;BME280;61288;53.446;-2.266;2023-11-19T09:14:44;100984.09;;;9.76;100.00
73101;BME280;61288;53.446;-2.266;2023-11-19T09:17:11;100980.66;;;9.76;100.00
73101;BME280;61288;53.446;-2.266;2023-11-19T09:19:36;100978.19;;;9.73;100.00
73101;BME280;61288;53.446;-2.266;2023-11-19T09:22:02;100981.59;;;9.73;100.00
73101;BME280;61288;53.446;-2.266;2023-11-19T09:24:27;100984.25;;;9.72;100.00
73101;BME280;61288;53.446;-2.266;2023-11-19T09:26:53;100984.28;;;9.70;100.00
73101;BME280;61288;53.446;-2.266;2023-11-19T09:29:20;100988.66;;;9.68;100.00
73101;BME280;61288;53.446;-2.266;2023-11-19T09:31:46;100995.69;;;9.64;100.00
73101;BME280;61288;53.446;-2.266;2023-11-19T09:34:12;101005.25;;;9.62;100.00
73101;BME280;61288;53.446;-2.266;2023-11-19T09:36:37;101008.78;;;9.60;100.00
73101;BME280;61288;53.446;-2.266;2023-11-19T09:39:03;101017.44;;;9.59;100.00
73101;BME280;61288;53.446;-2.266;2023-11-19T09:41:30;101022.59;;;9.59;100.00
73101;BME280;61288;53.446;-2.266;2023-11-19T09:43:56;101037.22;;;9.60;100.00
73101;BME280;61288;53.446;-2.266;2023-11-19T09:46:22;101041.53;;;9.59;100.00
73101;BME280;61288;53.446;-2.266;2023-11-19T09:48:54;101045.91;;;9.57;100.00
73101;BME280;61288;53.446;-2.266;2023-11-19T09:51:21;101051.97;;;9.58;100.00
73101;BME280;61288;53.446;-2.266;2023-11-19T09:53:47;101057.97;;;9.58;100.00
73101;BME280;61288;53.446;-2.266;2023-11-19T09:56:14;101074.34;;;9.59;100.00
73101;BME280;61288;53.446;-2.266;2023-11-19T09:58:39;101084.59;;;9.62;100.00
73101;BME280;61288;53.446;-2.266;2023-11-19T10:01:05;101091.53;;;9.61;100.00
73101;BME280;61288;53.446;-2.266;2023-11-19T10:03:35;101095.81;;;9.62;100.00
73101;BME280;61288;53.446;-2.266;2023-11-19T10:06:03;101103.50;;;9.64;100.00
73101;BME280;61288;53.446;-2.266;2023-11-19T10:08:29;101108.69;;;9.64;100.00
73101;BME280;61288;53.446;-2.266;2023-11-19T10:10:55;101116.44;;;9.64;100.00
73101;BME280;61288;53.446;-2.266;2023-11-19T10:13:26;101130.25;;;9.64;100.00
73101;BME280;61288;53.446;-2.266;2023-11-19T10:15:53;101134.56;;;9.64;100.00
73101;BME280;61288;53.446;-2.266;2023-11-19T10:18:26;101144.88;;;9.65;100.00
73101;BME280;61288;53.446;-2.266;2023-11-19T10:20:52;101163.81;;;9.66;100.00
73101;BME280;61288;53.446;-2.266;2023-11-19T10:23:21;101172.44;;;9.66;100.00
73101;BME280;61288;53.446;-2.266;2023-11-19T10:25:46;101182.81;;;9.65;100.00
73101;BME280;61288;53.446;-2.266;2023-11-19T10:28:15;101195.81;;;9.63;100.00
73101;BME280;61288;53.446;-2.266;2023-11-19T10:30:41;101201.03;;;9.62;100.00
73101;BME280;61288;53.446;-2.266;2023-11-19T10:33:10;101220.91;;;9.61;100.00
73101;BME280;61288;53.446;-2.266;2023-11-19T10:36:00;101235.53;;;9.62;100.00
73101;BME280;61288;53.446;-2.266;2023-11-19T10:38:26;101244.19;;;9.61;100.00
73101;BME280;61288;53.446;-2.266;2023-11-19T10:40:52;101255.38;;;9.62;100.00
73101;BME280;61288;53.446;-2.266;2023-11-19T10:43:20;101260.53;;;9.62;100.00
73101;BME280;61288;53.446;-2.266;2023-11-19T10:45:49;101276.88;;;9.64;100.00
73101;BME280;61288;53.446;-2.266;2023-11-19T10:48:15;101282.03;;;9.64;100.00
73101;BME280;61288;53.446;-2.266;2023-11-19T10:50:42;101304.44;;;9.65;100.00
73101;BME280;61288;53.446;-2.266;2023-11-19T10:53:10;101301.84;;;9.65;100.00
73101;BME280;61288;53.446;-2.266;2023-11-19T10:55:37;101305.31;;;9.65;100.00
73101;BME280;61288;53.446;-2.266;2023-11-19T10:58:08;101313.97;;;9.64;100.00
73101;BME280;61288;53.446;-2.266;2023-11-19T11:00:44;101328.59;;;9.65;100.00
73101;BME280;61288;53.446;-2.266;2023-11-19T11:03:16;101336.38;;;9.64;100.00
73101;BME280;61288;53.446;-2.266;2023-11-19T11:05:42;101344.16;;;9.64;100.00
73101;BME280;61288;53.446;-2.266;2023-11-19T11:08:08;101354.50;;;9.64;100.00
73101;BME280;61288;53.446;-2.266;2023-11-19T11:10:39;101361.34;;;9.66;100.00
73101;BME280;61288;53.446;-2.266;2023-11-19T11:13:14;101364.75;;;9.68;100.00
73101;BME280;61288;53.446;-2.266;2023-11-19T11:15:40;101372.41;;;9.72;100.00
73101;BME280;61288;53.446;-2.266;2023-11-19T11:18:09;101387.88;;;9.73;100.00
73101;BME280;61288;53.446;-2.266;2023-11-19T11:20:35;101389.59;;;9.74;100.00
73101;BME280;61288;53.446;-2.266;2023-11-19T11:28:58;101400.72;;;9.78;100.00
73101;BME280;61288;53.446;-2.266;2023-11-19T11:39:53;101412.50;;;9.90;100.00
73101;BME280;61288;53.446;-2.266;2023-11-19T11:47:25;101409.66;;;9.99;100.00
73101;BME280;61288;53.446;-2.266;2023-11-19T11:49:52;101399.28;;;10.01;100.00
73101;BME280;61288;53.446;-2.266;2023-11-19T11:52:19;101392.31;;;10.03;100.00
73101;BME280;61288;53.446;-2.266;2023-11-19T11:54:47;101406.09;;;10.03;100.00
73101;BME280;61288;53.446;-2.266;2023-11-19T11:57:13;101399.13;;;10.05;100.00
73101;BME280;61288;53.446;-2.266;2023-11-19T12:02:07;101398.22;;;10.08;100.00
73101;BME280;61288;53.446;-2.266;2023-11-19T12:04:37;101403.31;;;10.09;100.00
73101;BME280;61288;53.446;-2.266;2023-11-19T12:07:13;101390.31;;;10.13;100.00
73101;BME280;61288;53.446;-2.266;2023-11-19T12:09:41;101392.81;;;10.16;100.00
73101;BME280;61288;53.446;-2.266;2023-11-19T12:12:26;101404.00;;;10.18;100.00
73101;BME280;61288;53.446;-2.266;2023-11-19T12:15:01;101406.53;;;10.19;100.00
73101;BME280;61288;53.446;-2.266;2023-11-19T12:20:08;101410.72;;;10.23;100.00
73101;BME280;61288;53.446;-2.266;2023-11-19T12:22:46;101406.41;;;10.24;100.00
73101;BME280;61288;53.446;-2.266;2023-11-19T12:25:12;101408.91;;;10.27;100.00
73101;BME280;61288;53.446;-2.266;2023-11-19T12:27:43;101408.88;;;10.29;100.00
73101;BME280;61288;53.446;-2.266;2023-11-19T12:30:10;101407.03;;;10.32;100.00
73101;BME280;61288;53.446;-2.266;2023-11-19T12:32:42;101413.03;;;10.34;100.00
73101;BME280;61288;53.446;-2.266;2023-11-19T12:35:09;101419.91;;;10.35;100.00
73101;BME280;61288;53.446;-2.266;2023-11-19T12:40:19;101450.91;;;10.40;100.00
73101;BME280;61288;53.446;-2.266;2023-11-19T12:42:51;101466.34;;;10.43;100.00
73101;BME280;61288;53.446;-2.266;2023-11-19T12:45:18;101475.81;;;10.44;100.00
73101;BME280;61288;53.446;-2.266;2023-11-19T12:47:46;101483.50;;;10.47;100.00
73101;BME280;61288;53.446;-2.266;2023-11-19T12:50:20;101498.16;;;10.48;100.00
73101;BME280;61288;53.446;-2.266;2023-11-19T12:53:04;101511.91;;;10.52;100.00
73101;BME280;61288;53.446;-2.266;2023-11-19T12:55:32;101524.84;;;10.52;100.00
73101;BME280;61288;53.446;-2.266;2023-11-19T12:57:58;101541.22;;;10.54;100.00
73101;BME280;61288;53.446;-2.266;2023-11-19T13:00:35;101562.78;;;10.54;100.00
73101;BME280;61288;53.446;-2.266;2023-11-19T13:03:01;101580.88;;;10.56;100.00
73101;BME280;61288;53.446;-2.266;2023-11-19T13:05:33;101626.66;;;10.57;100.00